EW5739 Weather Reports


Display with metric or nautical units.
time (UTC)temp
F
wind
direction
speed
MPH
gust
MPH
rain 1hr
in
rain 24hr
in
rain mn
in
humidity
%
barometer
mb
20191018055947 47 260 0.0 1.0 0.00 1.01 0.00 98 990.7
20191018055941 46 280 0.0 0.0 0.00 1.01 1.31 99 989.3
20191018055937 46 280 0.0 0.0 0.00 1.01 1.31 99 989.2
20191018055930 46 281 0.0 0.0 0.00 1.01 1.31 99 989.1
20191018055926 46 280 0.0 0.0 0.00 1.01 1.31 99 989.1
20191018055920 47 292 0.0 1.0 0.00 1.01 0.00 98 990.7
20191018055916 46 281 0.0 0.0 0.00 1.01 1.31 99 988.9
20191018055912 46 281 0.0 0.0 0.00 1.01 1.31 99 988.7
20191018055906 47 291 0.0 0.0 0.00 1.01 0.00 97 991.0
20191018055902 46 280 0.0 0.0 0.00 1.01 1.31 99 988.6
20191018055853 46 281 0.0 0.0 0.00 1.01 1.31 99 988.6
20191018055846 46 281 0.0 0.0 0.00 1.01 1.31 99 988.5
20191018055842 45 281 0.0 0.0 0.00 1.01 1.31 99 988.4
20191018055836 45 280 0.0 0.0 0.00 1.01 1.31 99 988.2
20191018055832 47 245 0.0 0.0 0.00 1.01 0.00 97 991.1
20191018055828 45 281 0.0 0.0 0.00 1.01 1.31 99 988.0
20191018055822 45 280 0.0 0.0 0.00 1.01 1.31 98 987.9
20191018055818 47 278 0.0 5.0 0.01 1.02 0.01 96 991.3
20191018055814 45 281 0.0 0.0 0.00 1.01 1.31 98 987.8
20191018055808 46 280 0.0 0.0 0.00 1.01 1.31 98 987.7
20191018055804 46 281 0.0 0.0 0.00 1.01 1.31 98 987.5
20191018055757 46 281 0.0 0.0 0.00 1.01 1.31 98 987.5
20191018055753 46 280 0.0 0.0 0.00 1.01 1.31 98 987.3
20191018055747 47 279 0.0 5.0 0.01 1.02 0.01 95 991.3
20191018055743 46 281 0.0 0.0 0.00 1.01 1.31 98 987.4
20191018055739 46 281 0.0 0.0 0.00 1.01 1.31 98 987.3
20191018055733 46 281 0.0 1.0 0.00 1.01 1.31 98 987.2
20191018055729 47 314 0.0 3.0 0.01 1.02 0.01 93 991.5
20191018055725 46 280 0.0 1.0 0.00 1.01 1.31 98 987.0
20191018055719 46 281 0.0 2.0 0.00 1.01 1.31 98 986.8
20191018055714 47 281 1.0 2.0 0.00 1.01 1.31 98 986.8
20191018055708 47 252 1.0 2.0 0.00 1.01 1.31 98 986.6
20191018055704 47 275 1.0 2.0 0.00 1.01 1.31 98 986.6
20191018055700 47 171 1.0 3.0 0.01 1.02 0.01 92 991.6
20191018055654 46 265 0.0 4.0 0.00 1.01 1.31 98 986.5
20191018055650 46 266 0.0 4.0 0.00 1.01 1.31 98 986.4
20191018055646 48 264 2.0 5.0 0.01 1.02 0.01 91 991.6
20191017123006 55 113 4.0 11.0 0.03 0.95 1.25 99 979.8
20191017122505 55 65 4.0 14.0 0.04 0.95 1.25 99 979.9
20191017122005 55 82 5.0 14.0 0.04 0.94 1.24 99 979.9
20191017121501 55 101 4.0 10.0 0.04 0.94 1.24 99 980.0
20191017121001 56 26 3.0 11.0 0.04 0.94 1.24 99 980.1
20191017120458 56 111 4.0 11.0 0.04 0.93 1.23 99 980.0
20191017120000 56 108 3.0 8.0 0.06 0.93 1.23 99 979.3
20191017115128 56 82 3.0 21.0 0.08 0.93 1.23 99 979.4
20191017114631 56 94 3.0 21.0 0.09 0.92 1.22 99 979.5
20191017114126 56 158 2.0 6.0 0.10 0.92 1.22 99 979.3
20191017113628 57 209 3.0 12.0 0.11 0.92 1.22 99 979.3
20191017113127 57 121 3.0 12.0 0.11 0.92 1.22 99 979.2
20191017112626 57 3 3.0 9.0 0.11 0.91 1.22 99 979.1
20191017112126 57 102 5.0 13.0 0.12 0.91 1.21 99 978.9
20191017111626 56 82 6.0 18.0 0.15 0.90 1.20 99 978.7
20191017111126 56 85 7.0 18.0 0.18 0.90 1.20 99 978.6
20191017110625 55 104 6.0 14.0 0.21 0.89 1.19 99 978.7
20191017110124 55 160 6.0 12.0 0.25 0.88 1.18 98 978.9
20191017105625 55 127 7.0 12.0 0.27 0.86 1.17 98 979.2
20191017105125 55 105 8.0 17.0 0.32 0.85 1.15 98 979.4
20191017104625 55 125 7.0 17.0 0.37 0.83 1.13 98 979.6
20191017104124 55 149 9.0 19.0 0.39 0.82 1.12 97 979.9
20191017103626 55 117 11.0 20.0 0.40 0.81 1.11 97 980.0
20191017103124 54 76 9.0 20.0 0.43 0.81 1.11 98 979.7
20191017102624 54 90 8.0 20.0 0.45 0.80 1.10 98 980.1
20191017102120 54 148 8.0 19.0 0.48 0.79 1.09 98 981.0
20191017101623 54 95 8.0 15.0 0.51 0.75 1.05 98 980.8
20191017101121 54 80 9.0 21.0 0.54 0.72 1.02 98 980.2
20191017100623 54 117 8.0 21.0 0.55 0.68 0.99 98 980.1
20191017100120 54 87 8.0 17.0 0.53 0.63 0.94 98 980.5
20191017095623 53 98 9.0 18.0 0.52 0.59 0.90 98 980.4
20191017095120 53 46 10.0 18.0 0.48 0.53 0.84 98 980.5
20191017094623 53 27 9.0 18.0 0.43 0.46 0.76 98 980.7
20191017094120 53 162 9.0 22.0 0.41 0.43 0.73 97 981.2
20191017093622 53 65 10.0 22.0 0.40 0.41 0.71 97 981.0
20191017093120 53 55 9.0 21.0 0.37 0.38 0.69 98 981.2
20191017092623 53 89 10.0 26.0 0.35 0.35 0.65 97 981.5
20191017092120 53 68 10.0 26.0 0.31 0.31 0.62 97 982.3
20191017091623 53 49 10.0 18.0 0.24 0.24 0.54 97 982.7
20191017091120 54 34 10.0 21.0 0.18 0.18 0.48 97 983.0
20191017090623 54 52 10.0 21.0 0.13 0.13 0.44 97 983.3
20191017090120 54 76 11.0 21.0 0.10 0.10 0.40 97 983.6
20191017085622 54 78 11.0 24.0 0.07 0.07 0.37 97 983.6
20191017085118 54 64 10.0 24.0 0.05 0.05 0.36 97 984.5
20191017084621 54 132 10.0 23.0 0.03 0.03 0.33 97 984.8
20191017084119 54 101 10.0 22.0 0.02 0.02 0.32 96 984.8
20191017083621 54 123 10.0 25.0 0.01 0.01 0.31 96 985.3
20191017083118 54 95 10.0 25.0 0.01 0.01 0.31 97 985.4
20191017082623 53 59 9.0 19.0 0.00 0.00 0.30 97 985.8
20191017082118 53 135 9.0 19.0 0.00 0.00 0.30 97 986.1
20191017081622 53 39 9.0 18.0 0.00 0.00 0.30 96 986.8
20191017081118 53 70 9.0 18.0 0.00 0.00 0.30 97 987.1
20191017080618 53 130 9.0 0.0 0.00 0.00 0.29 97 988.4
20191017080053 53 86 10.0 27.0 0.10 0.30 0.29 97 989.4
20191017075552 53 98 9.0 26.0 0.12 0.30 0.29 97 989.1
20191017075051 53 89 9.0 19.0 0.14 0.30 0.29 97 989.2
20191017074550 53 58 8.0 19.0 0.16 0.30 0.29 97 990.4
20191017074050 53 116 8.0 16.0 0.19 0.30 0.29 97 990.7
20191017073551 53 102 8.0 16.0 0.21 0.29 0.28 97 990.6
20191017073048 52 73 7.0 14.0 0.23 0.28 0.28 97 991.4
20191017072549 52 75 7.0 16.0 0.23 0.27 0.26 97 991.9
20191017072047 52 77 7.0 16.0 0.21 0.25 0.25 97 992.0
20191017071546 52 120 7.0 15.0 0.21 0.24 0.23 97 992.6
20191017071047 52 95 7.0 15.0 0.20 0.22 0.21 96 993.0
20191017070547 52 91 7.0 14.0 0.19 0.21 0.20 97 993.6
20191017070045 52 169 7.0 13.0 0.18 0.20 0.19 96 994.1
20191017065544 52 103 7.0 23.0 0.16 0.18 0.17 96 994.2
20191017065043 52 39 6.0 23.0 0.15 0.16 0.16 96 994.7
20191017064542 52 79 5.0 16.0 0.13 0.14 0.13 96 994.6
20191017064036 52 91 6.0 16.0 0.10 0.11 0.11 96 994.9
20191017063536 52 78 5.0 11.0 0.07 0.08 0.08 95 995.1
20191017063036 52 101 5.0 9.0 0.04 0.05 0.04 95 995.6
20191017062534 52 118 6.0 9.0 0.03 0.04 0.03 95 995.9
20191017062033 52 112 5.0 11.0 0.03 0.04 0.03 95 996.2
20191017061534 52 121 5.0 11.0 0.02 0.03 0.02 94 996.9
20191017061034 52 117 5.0 13.0 0.01 0.02 0.01 94 997.2
20191017060534 52 84 5.0 13.0 0.01 0.02 0.01 94 997.1
20191017060034 52 53 5.0 15.0 0.01 0.02 0.01 93 997.6